Time;durP1;ratioP1;P1;durP2;ratioP2;P2;SDS_P1;SDS_P2;PMS_P1;PMS_P2;Temp;Humidity;BMP_temperature;BMP_pressure;BME280_temperature;BME280_humidity;BME280_pressure;Samples;Min_cycle;Max_cycle;Signal;HPM_P1;HPM_P2
2022/06/18 00:01:39;;;;;;;142.75;135.65;;;;;;;21.04;48.91;97268.06;5071130;28;20193;-70
2022/06/18 00:04:12;;;;;;;118.32;112.35;;;;;;;21.04;49.21;97260.88;5073998;28;20279;-70
2022/06/18 00:06:54;;;;;;;79.55;75.43;;;;;;;21.04;49.27;97255.53;5073327;28;20250;-70
2022/06/18 00:09:22;;;;;;;84.13;79.70;;;;;;;21.04;49.11;97265.41;5072570;28;20189;-71
2022/06/18 00:14:35;;;;;;;90.25;85.50;;;;;;;20.93;49.38;97254.06;5070306;28;20184;-72
2022/06/18 00:17:01;;;;;;;86.90;82.28;;;;;;;21.02;49.15;97256.91;5054993;28;20205;-71
2022/06/18 00:19:26;;;;;;;93.38;88.53;;;;;;;20.90;49.11;97261.81;5074389;28;20544;-71
2022/06/18 00:21:53;;;;;;;93.07;88.38;;;;;;;20.80;49.44;97261.91;5073059;28;20196;-71
2022/06/18 00:24:20;;;;;;;101.70;96.43;;;;;;;20.96;49.16;97258.00;5071768;28;20264;-71
2022/06/18 00:26:46;;;;;;;99.55;94.32;;;;;;;20.73;49.38;97262.25;5072804;28;20211;-71
2022/06/18 00:29:17;;;;;;;108.40;102.82;;;;;;;20.90;48.52;97259.16;5072504;28;20664;-71
2022/06/18 00:31:43;;;;;;;115.90;110.03;;;;;;;20.72;49.38;97250.00;5054691;28;20185;-70
2022/06/18 00:34:08;;;;;;;109.65;103.97;;;;;;;20.61;49.93;97257.28;5073402;28;20550;-71
2022/06/18 00:36:37;;;;;;;112.80;107.00;;;;;;;20.55;49.95;97246.94;5072491;28;20540;-71
2022/06/18 00:39:03;;;;;;;105.32;99.93;;;;;;;20.54;50.08;97248.81;5072372;28;20227;-71
2022/06/18 00:41:28;;;;;;;103.25;97.88;;;;;;;20.80;49.22;97253.91;5072970;28;20235;-71
2022/06/18 00:43:58;;;;;;;106.45;100.68;;;;;;;20.88;48.88;97256.78;5072517;28;20182;-71
2022/06/18 00:46:28;;;;;;;119.57;113.35;;;;;;;20.83;48.71;97248.81;5071899;28;20173;-71
2022/06/18 00:49:22;;;;;;;110.80;105.03;;;;;;;20.83;48.78;97256.03;5074106;28;20224;-71
2022/06/18 00:51:56;;;;;;;99.40;94.13;;;;;;;20.67;49.52;97248.13;5072381;28;20287;-71
2022/06/18 00:54:27;;;;;;;66.20;62.60;;;;;;;20.76;49.70;97245.69;5067984;28;20185;-71
2022/06/18 00:57:11;;;;;;;83.53;78.88;;;;;;;20.85;49.33;97245.84;5072165;28;20197;-71
2022/06/18 00:59:59;;;;;;;87.05;82.30;;;;;;;20.61;49.78;97240.50;5071991;28;20482;-71
2022/06/18 01:02:32;;;;;;;98.00;92.75;;;;;;;20.72;49.06;97253.44;5070711;28;20744;-71
2022/06/18 01:04:57;;;;;;;85.25;80.70;;;;;;;20.70;49.13;97242.28;5076430;28;20182;-71
2022/06/18 01:07:27;;;;;;;87.47;82.80;;;;;;;20.78;49.05;97240.09;5075884;28;20197;-71
2022/06/18 01:09:53;;;;;;;102.13;96.68;;;;;;;20.73;49.20;97244.34;5057811;28;20712;-71
2022/06/18 01:12:20;;;;;;;102.53;96.70;;;;;;;20.65;49.14;97241.53;5075954;28;20181;-71
2022/06/18 01:14:50;;;;;;;101.90;96.38;;;;;;;20.88;48.26;97235.44;5076017;28;20181;-71
2022/06/18 01:17:16;;;;;;;95.82;90.63;;;;;;;20.93;48.30;97238.06;5075254;28;20625;-71
2022/06/18 01:19:51;;;;;;;114.32;108.22;;;;;;;20.80;49.11;97233.38;5077263;28;20278;-71
2022/06/18 01:22:28;;;;;;;258.13;244.13;;;;;;;20.61;50.18;97225.31;5075359;28;20622;-71
2022/06/18 01:24:55;;;;;;;441.42;415.98;;;;;;;20.62;50.62;97226.88;5064219;28;20189;-71
2022/06/18 01:27:21;;;;;;;545.83;513.38;;;;;;;20.60;50.84;97228.25;5075536;28;20192;-71
2022/06/18 01:29:46;;;;;;;664.78;623.30;;;;;;;20.53;51.09;97219.78;5075824;28;20178;-71
2022/06/18 01:32:14;;;;;;;746.95;698.58;;;;;;;20.47;51.23;97219.03;5075476;28;20618;-71
2022/06/18 01:34:39;;;;;;;814.78;758.85;;;;;;;20.39;51.55;97208.19;5076322;28;20189;-71
2022/06/18 01:37:06;;;;;;;845.42;786.92;;;;;;;20.38;51.96;97220.69;5076347;28;20205;-71
2022/06/18 01:39:36;;;;;;;710.75;666.15;;;;;;;20.43;52.03;97210.00;5075490;28;20252;-71
2022/06/18 01:42:12;;;;;;;495.88;467.85;;;;;;;20.38;52.34;97210.06;5075925;28;20197;-71
2022/06/18 01:44:41;;;;;;;267.77;253.65;;;;;;;20.21;53.14;97206.94;5075909;28;20654;-71
2022/06/18 01:47:26;;;;;;;224.55;212.60;;;;;;;20.12;53.37;97200.59;5074135;28;20181;-70
2022/06/18 01:50:17;;;;;;;217.57;205.95;;;;;;;20.08;53.90;97203.03;5075808;28;20497;-71
2022/06/18 01:53:09;;;;;;;263.90;249.90;;;;;;;19.96;54.48;97201.78;5074767;28;20450;-71
2022/06/18 01:55:44;;;;;;;196.30;185.93;;;;;;;20.16;54.01;97193.69;5075115;28;20225;-71
2022/06/18 01:58:18;;;;;;;76.07;72.00;;;;;;;19.82;54.82;97185.66;5075079;28;20583;-71
2022/06/18 02:00:48;;;;;;;74.50;70.60;;;;;;;20.03;54.15;97181.00;5069206;28;20662;-71
2022/06/18 02:03:14;;;;;;;115.35;109.03;;;;;;;19.89;54.49;97184.25;5075464;28;20190;-71
2022/06/18 02:05:39;;;;;;;148.30;140.32;;;;;;;19.97;54.26;97182.09;5076455;28;20189;-71
2022/06/18 02:08:08;;;;;;;125.35;118.43;;;;;;;19.88;54.65;97173.91;5075127;28;20185;-71
2022/06/18 02:10:47;;;;;;;101.05;95.47;;;;;;;19.77;54.94;97167.06;5074796;28;20201;-71
2022/06/18 02:13:13;;;;;;;96.55;91.40;;;;;;;19.71;54.83;97166.31;5075048;28;20177;-71
2022/06/18 02:15:45;;;;;;;97.93;92.53;;;;;;;19.62;54.89;97172.47;5074764;28;20284;-71
2022/06/18 02:18:14;;;;;;;91.95;86.65;;;;;;;19.65;54.62;97164.75;5074727;28;20186;-71
2022/06/18 02:20:45;;;;;;;94.97;89.68;;;;;;;19.79;53.78;97168.38;5076505;28;20191;-71
2022/06/18 02:23:11;;;;;;;97.10;91.65;;;;;;;19.58;54.49;97161.59;5073569;28;20208;-71
2022/06/18 02:25:36;;;;;;;123.82;117.10;;;;;;;19.64;54.64;97163.16;5066584;28;20893;-71
2022/06/18 02:28:23;;;;;;;149.65;141.55;;;;;;;19.69;54.50;97162.31;5074959;28;20182;-70
2022/06/18 02:30:52;;;;;;;228.55;216.57;;;;;;;19.84;53.80;97152.38;5042264;28;20555;-71
2022/06/18 02:33:41;;;;;;;271.73;256.95;;;;;;;19.80;53.93;97156.66;5074275;28;20665;-71
2022/06/18 02:36:30;;;;;;;290.17;274.58;;;;;;;19.65;54.45;97154.09;5076230;28;20674;-71
2022/06/18 02:39:25;;;;;;;295.17;279.40;;;;;;;19.63;54.25;97150.13;5074000;28;20300;-68
2022/06/18 02:42:08;;;;;;;301.45;285.25;;;;;;;19.86;53.71;97149.44;5047695;28;20822;-69
2022/06/18 02:44:34;;;;;;;287.92;272.50;;;;;;;19.72;53.85;97148.47;5074154;28;20178;-69
2022/06/18 02:47:05;;;;;;;263.77;249.88;;;;;;;19.83;53.46;97153.47;5073956;28;20182;-68
2022/06/18 02:49:32;;;;;;;263.67;249.77;;;;;;;19.79;53.66;97151.59;5073818;28;20188;-69
2022/06/18 02:51:57;;;;;;;247.85;234.82;;;;;;;19.86;53.62;97157.44;5075972;28;20185;-68
2022/06/18 02:54:23;;;;;;;229.65;217.40;;;;;;;19.77;53.62;97157.22;5073567;28;20190;-68
2022/06/18 02:56:49;;;;;;;222.77;210.77;;;;;;;19.75;53.76;97151.38;5073324;28;20205;-68
2022/06/18 02:59:14;;;;;;;209.82;198.63;;;;;;;19.89;53.45;97154.22;5073604;28;20193;-69
2022/06/18 03:01:40;;;;;;;197.73;187.05;;;;;;;19.78;53.58;97150.03;5072193;28;20197;-68
2022/06/18 03:04:06;;;;;;;186.70;176.20;;;;;;;19.77;53.63;97151.09;5073410;28;20310;-68
2022/06/18 03:06:33;;;;;;;181.10;171.40;;;;;;;19.75;53.87;97151.38;5073990;28;20189;-69
2022/06/18 03:08:58;;;;;;;161.70;153.20;;;;;;;19.75;53.84;97154.03;5073371;28;20189;-68
2022/06/18 03:14:13;;;;;;;238.30;225.63;;;;;;;19.70;53.20;97151.41;5073828;28;20234;-68
2022/06/18 03:16:39;;;;;;;203.82;193.32;;;;;;;19.60;53.42;97146.16;5073642;28;20201;-68
2022/06/18 03:19:05;;;;;;;166.38;157.13;;;;;;;19.73;52.92;97148.19;5072408;28;20556;-68
2022/06/18 03:21:31;;;;;;;163.48;154.77;;;;;;;19.84;52.41;97141.72;5074131;28;20311;-69
2022/06/18 03:23:56;;;;;;;203.63;192.75;;;;;;;19.77;52.37;97140.47;5054570;28;20217;-68
2022/06/18 03:26:22;;;;;;;215.57;203.85;;;;;;;19.77;52.19;97141.28;5073448;28;20185;-68
2022/06/18 03:28:47;;;;;;;220.68;208.43;;;;;;;19.75;52.01;97140.75;5073568;28;20198;-68
2022/06/18 03:31:13;;;;;;;222.25;209.70;;;;;;;19.86;51.99;97136.13;5073186;28;20177;-68
2022/06/18 03:33:41;;;;;;;207.35;195.98;;;;;;;19.82;52.11;97143.88;5073200;28;20185;-69
2022/06/18 03:36:08;;;;;;;201.48;190.23;;;;;;;19.88;51.97;97142.00;5073370;28;20209;-69
2022/06/18 03:38:33;;;;;;;197.30;186.55;;;;;;;19.98;51.74;97141.91;5073069;28;20606;-68
2022/06/18 03:40:59;;;;;;;193.00;182.27;;;;;;;20.00;51.62;97145.09;5072996;28;20189;-69
2022/06/18 03:43:26;;;;;;;213.30;201.93;;;;;;;19.86;51.77;97144.13;5073101;28;20268;-68
2022/06/18 03:45:57;;;;;;;223.35;211.48;;;;;;;19.97;51.79;97150.16;5071840;28;20192;-69
2022/06/18 03:48:28;;;;;;;245.80;232.93;;;;;;;20.02;51.76;97150.13;5073096;28;20857;-68
2022/06/18 03:50:54;;;;;;;243.40;230.57;;;;;;;20.03;51.99;97151.72;5072907;28;20209;-69
2022/06/18 03:53:20;;;;;;;240.60;227.95;;;;;;;20.14;51.69;97158.56;5072485;28;20220;-68
2022/06/18 03:55:46;;;;;;;258.55;245.10;;;;;;;20.12;52.08;97161.47;5054587;28;20265;-69
2022/06/18 03:58:12;;;;;;;266.02;251.98;;;;;;;20.14;51.85;97159.34;5054634;28;20234;-69
2022/06/18 04:00:38;;;;;;;272.95;258.73;;;;;;;20.31;51.76;97164.28;5064398;28;20276;-68
2022/06/18 04:03:03;;;;;;;275.33;260.83;;;;;;;20.39;51.45;97152.28;5073509;28;20197;-68
2022/06/18 04:05:30;;;;;;;311.60;294.85;;;;;;;20.57;51.08;97164.88;5072780;28;20189;-68
2022/06/18 04:07:55;;;;;;;356.35;336.05;;;;;;;20.52;51.12;97159.59;5073500;28;20188;-68
2022/06/18 04:10:21;;;;;;;530.83;498.13;;;;;;;20.54;51.15;97166.22;5072996;28;20571;-68
2022/06/18 04:12:47;;;;;;;689.92;643.78;;;;;;;20.89;49.97;97173.09;5072835;28;20238;-68
2022/06/18 04:15:15;;;;;;;637.28;594.85;;;;;;;20.94;49.84;97175.69;5072636;28;20197;-68
2022/06/18 04:17:41;;;;;;;510.65;477.40;;;;;;;20.99;49.66;97169.50;5072596;28;20218;-68
2022/06/18 04:20:15;;;;;;;428.92;402.42;;;;;;;21.22;49.54;97173.28;5072820;28;20185;-66
2022/06/18 04:22:40;;;;;;;299.17;281.73;;;;;;;21.14;49.78;97172.81;5053497;28;20585;-69
2022/06/18 04:25:06;;;;;;;196.05;184.95;;;;;;;21.28;49.53;97170.28;5064927;28;20255;-69
2022/06/18 04:27:32;;;;;;;145.77;137.63;;;;;;;21.76;48.28;97162.16;5072827;28;20185;-69
2022/06/18 04:29:57;;;;;;;120.72;114.18;;;;;;;21.77;47.80;97164.56;5072435;28;20189;-69
2022/06/18 04:32:23;;;;;;;116.57;109.80;;;;;;;21.65;47.82;97172.19;5072954;28;20188;-67
2022/06/18 04:34:48;;;;;;;88.00;83.05;;;;;;;21.75;47.83;97171.25;5073158;28;20216;-67
2022/06/18 04:37:13;;;;;;;63.40;59.70;;;;;;;22.21;47.09;97176.72;5073274;28;20212;-67
2022/06/18 04:39:39;;;;;;;49.40;46.85;;;;;;;22.07;46.80;97175.91;5075080;28;20278;-67
2022/06/18 04:42:04;;;;;;;75.32;71.53;;;;;;;22.09;46.98;97179.84;5076150;28;20637;-68
2022/06/18 04:44:30;;;;;;;310.42;294.08;;;;;;;22.21;46.75;97169.53;5076483;28;20548;-67
2022/06/18 04:46:55;;;;;;;292.52;277.63;;;;;;;22.58;46.23;97170.50;5076115;28;20242;-68
2022/06/18 04:49:20;;;;;;;229.73;218.20;;;;;;;22.64;45.51;97167.44;5076459;28;20184;-67
2022/06/18 04:51:47;;;;;;;277.45;263.73;;;;;;;22.88;45.30;97166.53;5075885;28;20205;-68
2022/06/18 04:54:13;;;;;;;315.63;300.33;;;;;;;22.99;45.32;97168.72;5076308;28;20503;-68
2022/06/18 04:56:39;;;;;;;315.88;300.48;;;;;;;23.15;45.14;97174.56;5075577;28;20205;-68
2022/06/18 04:59:05;;;;;;;239.77;227.88;;;;;;;23.21;44.85;97171.50;5056395;28;20199;-68
2022/06/18 05:01:31;;;;;;;204.75;194.63;;;;;;;23.21;44.88;97168.81;5075734;28;20518;-69
2022/06/18 05:03:56;;;;;;;202.18;192.32;;;;;;;23.36;44.62;97156.22;5075870;28;20185;-69
2022/06/18 05:06:21;;;;;;;257.50;244.98;;;;;;;23.31;45.02;97165.13;5077065;28;20193;-68
2022/06/18 05:08:47;;;;;;;348.27;330.88;;;;;;;23.58;44.43;97169.69;5075872;28;20213;-68
2022/06/18 05:11:12;;;;;;;407.00;387.02;;;;;;;23.94;43.99;97169.69;5075697;28;20212;-68
2022/06/18 05:13:37;;;;;;;357.17;340.27;;;;;;;24.02;43.51;97166.28;5076152;28;20189;-68
2022/06/18 05:16:04;;;;;;;269.77;256.77;;;;;;;23.67;44.48;97172.47;5075523;28;20217;-69
2022/06/18 05:18:33;;;;;;;205.23;195.32;;;;;;;23.90;44.09;97166.06;5075745;28;20196;-68
2022/06/18 05:20:58;;;;;;;169.32;160.98;;;;;;;24.30;43.28;97170.47;5075464;28;20660;-67
2022/06/18 05:23:24;;;;;;;181.45;172.07;;;;;;;24.21;43.75;97168.84;5056262;28;20223;-68
2022/06/18 05:25:54;;;;;;;187.73;178.43;;;;;;;24.23;43.88;97164.78;5075111;28;20192;-68
2022/06/18 05:28:20;;;;;;;186.68;177.82;;;;;;;24.50;43.59;97168.41;5075037;28;20264;-68
2022/06/18 05:30:45;;;;;;;336.17;319.63;;;;;;;24.49;43.78;97170.28;5075542;28;20406;-68
2022/06/18 05:33:11;;;;;;;446.13;422.58;;;;;;;24.60;43.54;97166.25;5075739;28;20185;-69
2022/06/18 05:35:38;;;;;;;529.38;501.30;;;;;;;24.83;42.99;97161.63;5074619;28;20367;-68
2022/06/18 05:38:04;;;;;;;513.88;487.15;;;;;;;25.14;42.56;97156.25;5076099;28;20221;-68
2022/06/18 05:40:29;;;;;;;501.55;475.70;;;;;;;25.12;42.24;97161.94;5075673;28;20553;-68
2022/06/18 05:42:55;;;;;;;547.60;518.13;;;;;;;24.88;44.31;97158.03;5074578;28;20774;-68
2022/06/18 05:45:20;;;;;;;408.23;387.33;;;;;;;25.38;44.29;97155.84;5074540;28;20189;-68
2022/06/18 05:47:46;;;;;;;471.98;447.38;;;;;;;25.57;43.79;97159.88;5074475;28;20185;-68
2022/06/18 05:50:15;;;;;;;521.22;494.17;;;;;;;25.33;43.50;97162.16;5074073;28;20549;-69
2022/06/18 05:52:41;;;;;;;557.47;527.88;;;;;;;25.69;42.83;97159.22;5075135;28;20193;-68
2022/06/18 05:55:07;;;;;;;485.88;459.52;;;;;;;25.69;42.17;97167.28;5074756;28;20191;-68
2022/06/18 05:57:33;;;;;;;475.48;450.58;;;;;;;25.88;41.88;97169.69;5074617;28;20272;-68
2022/06/18 06:00:05;;;;;;;488.15;462.75;;;;;;;25.96;41.45;97166.22;5072892;28;20272;-68
2022/06/18 06:02:30;;;;;;;494.33;468.95;;;;;;;25.79;41.96;97164.31;5063719;28;20183;-68
2022/06/18 06:04:55;;;;;;;428.00;405.55;;;;;;;26.01;41.71;97166.84;5056502;28;20189;-68
2022/06/18 06:07:23;;;;;;;405.48;383.20;;;;;;;25.74;42.93;97164.47;5075026;28;20202;-68
2022/06/18 06:12:37;;;;;;;518.10;491.20;;;;;;;26.28;42.77;97165.75;5074335;28;20191;-68
2022/06/18 06:15:04;;;;;;;457.13;433.42;;;;;;;26.05;43.04;97158.94;5074958;28;20181;-68
2022/06/18 06:17:29;;;;;;;476.98;452.08;;;;;;;26.30;42.52;97160.06;5074838;28;20193;-68
2022/06/18 06:20:11;;;;;;;470.58;445.95;;;;;;;26.37;42.67;97158.47;5074261;28;20242;-69
2022/06/18 06:22:37;;;;;;;444.48;421.30;;;;;;;26.28;43.07;97160.38;5070594;28;20202;-68
2022/06/18 06:25:02;;;;;;;434.85;411.95;;;;;;;26.14;43.35;97153.59;5073404;28;20250;-68
2022/06/18 06:27:28;;;;;;;435.38;412.63;;;;;;;26.53;42.87;97164.13;5074239;28;20205;-67
2022/06/18 06:29:53;;;;;;;482.15;457.20;;;;;;;26.91;42.46;97158.03;5074423;28;20264;-67
2022/06/18 06:32:19;;;;;;;506.17;480.35;;;;;;;26.74;42.58;97158.84;5074562;28;20288;-67
2022/06/18 06:34:44;;;;;;;519.15;492.52;;;;;;;26.89;42.41;97156.47;5074189;28;20185;-67
2022/06/18 06:37:10;;;;;;;416.52;394.35;;;;;;;26.98;42.11;97155.63;5075051;28;20233;-67
2022/06/18 06:39:36;;;;;;;396.55;375.75;;;;;;;26.87;40.99;97158.66;5074254;28;20694;-67
2022/06/18 06:42:01;;;;;;;449.73;426.20;;;;;;;26.85;40.79;97163.56;5074122;28;20189;-68
2022/06/18 06:44:27;;;;;;;406.95;386.65;;;;;;;27.21;39.96;97155.03;5074356;28;20648;-67
2022/06/18 06:46:52;;;;;;;332.38;315.95;;;;;;;27.19;39.98;97156.50;5073545;28;20264;-68
2022/06/18 06:49:17;;;;;;;351.58;334.27;;;;;;;27.21;40.26;97143.47;5039678;28;20571;-68
2022/06/18 06:51:43;;;;;;;316.17;300.70;;;;;;;27.41;40.13;97144.66;5056150;28;20280;-68
2022/06/18 06:54:08;;;;;;;372.15;354.15;;;;;;;27.16;41.28;97140.97;5074450;28;20190;-69
2022/06/18 06:59:18;;;;;;;420.38;400.25;;;;;;;26.89;41.47;97152.97;5071860;28;20196;-68
2022/06/18 07:01:44;;;;;;;439.73;418.52;;;;;;;26.96;41.55;97152.47;5073300;28;20193;-68
2022/06/18 07:04:11;;;;;;;417.27;396.60;;;;;;;27.26;41.49;97157.53;5073201;28;20177;-68
2022/06/18 07:06:36;;;;;;;424.23;403.27;;;;;;;27.39;41.57;97153.03;5055385;28;20207;-69
2022/06/18 07:09:06;;;;;;;424.15;403.27;;;;;;;27.67;40.93;97146.09;5074812;28;20185;-69
2022/06/18 07:11:33;;;;;;;383.50;364.02;;;;;;;27.71;40.73;97146.19;5072110;28;20173;-68
2022/06/18 07:13:59;;;;;;;378.38;359.60;;;;;;;27.78;41.15;97146.47;5073094;28;20191;-68
2022/06/18 07:16:24;;;;;;;421.38;400.55;;;;;;;28.05;40.58;97147.84;5069914;28;20697;-68
2022/06/18 07:18:52;;;;;;;429.92;408.13;;;;;;;27.62;41.23;97153.56;5073477;28;20186;-68
2022/06/18 07:21:19;;;;;;;429.00;408.00;;;;;;;27.97;40.97;97146.03;5073069;28;20223;-70
2022/06/18 07:23:45;;;;;;;398.83;379.17;;;;;;;28.13;40.30;97149.72;5063068;28;20633;-68
2022/06/18 07:26:16;;;;;;;405.92;386.30;;;;;;;28.07;39.92;97146.41;5073094;28;20193;-69
2022/06/18 07:28:43;;;;;;;413.33;393.40;;;;;;;28.20;40.09;97141.84;5072819;28;20191;-69
2022/06/18 07:31:14;;;;;;;374.63;356.70;;;;;;;28.20;40.25;97144.56;5073691;28;20235;-68
2022/06/18 07:33:40;;;;;;;302.95;288.55;;;;;;;28.53;38.96;97147.25;5073446;28;20626;-68
2022/06/18 07:36:06;;;;;;;238.63;226.48;;;;;;;28.45;38.96;97137.34;5073399;28;20268;-68
2022/06/18 07:38:32;;;;;;;201.07;191.02;;;;;;;28.79;38.72;97128.91;5056236;28;20651;-69
2022/06/18 07:40:57;;;;;;;182.77;173.55;;;;;;;28.99;38.67;97139.91;5073587;28;20272;-68
2022/06/18 07:43:32;;;;;;;215.15;203.90;;;;;;;29.05;38.05;97122.38;5054996;28;20238;-68
2022/06/18 07:45:57;;;;;;;230.85;219.88;;;;;;;28.79;39.50;97133.50;5073015;28;20188;-68
2022/06/18 07:48:23;;;;;;;200.70;190.88;;;;;;;28.89;38.82;97133.84;5073240;28;20427;-68
2022/06/18 07:50:48;;;;;;;259.10;245.38;;;;;;;29.03;37.35;97128.13;5073739;28;20173;-67
2022/06/18 07:53:20;;;;;;;191.95;182.00;;;;;;;28.99;38.68;97129.13;5076092;28;20204;-66
2022/06/18 07:55:46;;;;;;;271.42;258.48;;;;;;;29.22;38.84;97125.63;5073277;28;20189;-67
2022/06/18 07:58:11;;;;;;;130.32;123.90;;;;;;;29.18;40.50;97129.34;5070449;28;20266;-68
2022/06/18 08:00:39;;;;;;;106.75;101.28;;;;;;;29.44;39.91;97129.81;5072967;28;20185;-67
2022/06/18 08:03:06;;;;;;;107.95;102.38;;;;;;;29.12;40.37;97126.09;5073540;28;20215;-68
2022/06/18 08:05:32;;;;;;;114.65;108.70;;;;;;;29.03;40.07;97124.66;5054395;28;20177;-67
2022/06/18 08:07:57;;;;;;;131.02;124.00;;;;;;;29.15;39.52;97122.72;5074476;28;20204;-67
2022/06/18 08:10:23;;;;;;;112.13;106.25;;;;;;;29.40;39.76;97120.03;5058079;28;20274;-67
2022/06/18 08:12:48;;;;;;;138.05;131.07;;;;;;;29.15;39.23;97114.59;5071687;28;20185;-67
2022/06/18 08:15:14;;;;;;;121.50;115.18;;;;;;;29.23;39.69;97119.13;5071853;28;20650;-67
2022/06/18 08:17:39;;;;;;;146.15;138.30;;;;;;;29.25;39.26;97114.16;5072941;28;20185;-67
2022/06/18 08:20:06;;;;;;;141.52;133.98;;;;;;;29.16;39.88;97120.78;5072542;28;20190;-67
2022/06/18 08:22:33;;;;;;;215.75;205.50;;;;;;;29.25;38.54;97116.09;5071900;28;20649;-67
2022/06/18 08:25:00;;;;;;;212.23;202.07;;;;;;;29.38;37.78;97114.94;5074286;28;20540;-67
2022/06/18 08:27:26;;;;;;;244.85;232.70;;;;;;;29.40;38.48;97112.72;5072698;28;20197;-66
2022/06/18 08:29:51;;;;;;;226.88;215.40;;;;;;;29.02;37.78;97106.88;5072603;28;20276;-67
2022/06/18 08:32:17;;;;;;;224.70;213.25;;;;;;;28.99;38.04;97108.31;5072330;28;20268;-67
2022/06/18 08:34:42;;;;;;;238.02;225.68;;;;;;;28.97;37.82;97115.97;5073565;28;20173;-66
2022/06/18 08:37:08;;;;;;;334.55;316.75;;;;;;;29.36;36.64;97109.13;5072939;28;20684;-66
2022/06/18 08:39:35;;;;;;;301.85;286.00;;;;;;;29.55;36.51;97106.59;5074145;28;20336;-67
2022/06/18 08:42:12;;;;;;;569.33;538.15;;;;;;;29.46;35.30;97105.16;5073147;28;20196;-67
2022/06/18 08:45:09;;;;;;;471.10;446.73;;;;;;;29.68;34.22;97101.94;5069761;28;20201;-67
2022/06/18 08:47:53;;;;;;;540.25;511.02;;;;;;;29.51;35.32;97105.72;5054411;28;20554;-67
2022/06/18 08:51:00;;;;;;;370.67;351.58;;;;;;;29.58;33.72;97097.81;5060608;28;20181;-67
2022/06/18 08:53:53;;;;;;;277.30;263.15;;;;;;;29.77;32.54;97105.28;4992639;28;20200;-66
2022/06/18 08:56:32;;;;;;;166.93;158.50;;;;;;;29.91;31.65;97097.63;5070673;28;20214;-67
2022/06/18 08:59:23;;;;;;;135.95;129.18;;;;;;;30.17;32.19;97103.38;5069495;28;20255;-67
2022/06/18 09:02:01;;;;;;;148.93;141.27;;;;;;;30.22;33.27;97091.50;5054490;28;20522;-67
2022/06/18 09:04:46;;;;;;;115.13;109.25;;;;;;;30.32;32.27;97090.19;5071647;28;20173;-67
2022/06/18 09:07:39;;;;;;;99.03;93.95;;;;;;;30.02;33.24;97092.50;5054553;28;20189;-67
2022/06/18 09:11:02;;;;;;;96.57;91.43;;;;;;;29.96;33.01;97086.56;5073118;28;20190;-68
2022/06/18 09:13:57;;;;;;;91.93;87.10;;;;;;;30.42;32.67;97087.78;4961495;28;20215;-67
2022/06/18 09:16:32;;;;;;;103.20;98.05;;;;;;;30.52;32.98;97097.34;5069607;28;20252;-68
2022/06/18 09:19:03;;;;;;;97.30;92.30;;;;;;;30.81;33.46;97086.09;5072269;28;20183;-68
2022/06/18 09:21:45;;;;;;;122.13;116.05;;;;;;;30.54;32.90;97085.03;5072262;28;20185;-67
2022/06/18 09:24:18;;;;;;;96.70;91.85;;;;;;;30.75;31.60;97084.00;5074052;28;20208;-67
2022/06/18 09:26:50;;;;;;;133.80;127.07;;;;;;;30.44;31.57;97082.00;5057699;28;20213;-67
2022/06/18 09:29:25;;;;;;;126.38;120.10;;;;;;;30.40;32.69;97087.34;5075135;28;20178;-67
2022/06/18 09:32:04;;;;;;;155.15;147.57;;;;;;;30.77;32.51;97082.50;5075513;28;20180;-67
2022/06/18 09:34:40;;;;;;;293.00;277.38;;;;;;;30.92;30.70;97078.22;5076021;28;20173;-68
2022/06/18 09:37:13;;;;;;;177.00;168.18;;;;;;;30.75;32.94;97076.66;5076090;28;20208;-69
2022/06/18 09:39:44;;;;;;;155.63;147.80;;;;;;;30.34;32.72;97077.13;5075971;28;20221;-68
2022/06/18 09:42:22;;;;;;;294.40;278.88;;;;;;;30.19;32.31;97072.47;5074967;28;20179;-69
2022/06/18 09:45:14;;;;;;;211.13;200.68;;;;;;;30.55;32.99;97074.97;5075660;28;20179;-68
2022/06/18 09:47:48;;;;;;;179.05;170.18;;;;;;;30.82;32.44;97071.41;5075024;28;20277;-68
2022/06/18 09:50:32;;;;;;;183.95;174.77;;;;;;;30.83;32.99;97070.25;5076151;28;20623;-69
2022/06/18 09:53:21;;;;;;;393.67;371.63;;;;;;;30.77;30.38;97070.88;5075261;28;20177;-68
2022/06/18 09:55:51;;;;;;;263.90;249.50;;;;;;;29.73;29.75;97069.28;5077216;28;20221;-68
2022/06/18 09:58:28;;;;;;;196.57;185.88;;;;;;;29.06;30.37;97064.56;5071805;28;20185;-67
2022/06/18 10:00:57;;;;;;;216.88;205.02;;;;;;;29.35;30.39;97058.94;5075060;28;20174;-67
2022/06/18 10:09:02;;;;;;;260.20;245.60;;;;;;;30.39;29.02;97066.84;5074709;28;20184;-68
2022/06/18 10:11:29;;;;;;;193.27;182.68;;;;;;;30.35;29.61;97070.59;5076258;28;20262;-67
2022/06/18 10:14:02;;;;;;;203.57;192.30;;;;;;;30.01;29.56;97061.97;5074094;28;20243;-67
2022/06/18 10:16:45;;;;;;;205.18;194.02;;;;;;;30.32;30.13;97061.22;5074421;28;20197;-68
2022/06/18 10:19:29;;;;;;;207.05;195.48;;;;;;;30.21;30.95;97054.75;5075629;28;20189;-69
2022/06/18 10:21:57;;;;;;;224.95;212.30;;;;;;;29.80;30.96;97044.38;5069093;28;20201;-68
2022/06/18 10:24:31;;;;;;;596.53;564.38;;;;;;;30.03;32.20;97058.94;5073736;28;20193;-68
2022/06/18 10:27:07;;;;;;;501.92;474.73;;;;;;;29.92;31.24;97041.66;5076832;28;20249;-68
2022/06/18 10:29:55;;;;;;;241.10;227.90;;;;;;;30.03;29.91;97040.81;5075330;28;20177;-67
2022/06/18 10:32:42;;;;;;;240.13;226.93;;;;;;;30.25;30.48;97035.94;5061287;28;20193;-68
2022/06/18 10:35:19;;;;;;;174.68;164.85;;;;;;;30.60;29.01;97026.00;5074744;28;20177;-69
2022/06/18 10:38:24;;;;;;;160.50;151.63;;;;;;;30.73;29.31;97030.19;5073822;28;20185;-69
2022/06/18 10:41:13;;;;;;;126.63;119.63;;;;;;;30.60;29.33;97022.50;5046555;28;20193;-68
2022/06/18 10:44:04;;;;;;;112.95;106.82;;;;;;;30.73;28.99;97015.88;5073981;28;20181;-67
2022/06/18 10:46:29;;;;;;;69.65;65.65;;;;;;;30.67;28.85;97022.69;5074038;28;20192;-68
2022/06/18 10:48:59;;;;;;;48.53;45.65;;;;;;;30.93;29.56;97015.56;5074596;28;20181;-69
2022/06/18 10:51:28;;;;;;;73.20;69.30;;;;;;;31.03;29.57;97008.88;5074229;28;20186;-69
2022/06/18 10:53:55;;;;;;;72.05;68.15;;;;;;;31.09;29.50;97004.75;5074861;28;20276;-69
2022/06/18 10:56:27;;;;;;;26.20;24.58;;;;;;;30.40;29.61;96998.06;5073422;28;20563;-70
2022/06/18 10:58:56;;;;;;;16.00;15.10;;;;;;;30.68;29.46;96998.00;5074190;28;20185;-70
2022/06/18 11:01:49;;;;;;;22.67;21.42;;;;;;;29.78;28.98;96998.75;5074284;28;20268;-71
2022/06/18 11:04:29;;;;;;;21.38;20.23;;;;;;;30.19;28.91;96992.13;5073268;28;20225;-69
2022/06/18 11:07:02;;;;;;;20.88;19.83;;;;;;;30.74;28.35;96996.59;5061389;28;20256;-69
2022/06/18 11:09:33;;;;;;;24.65;23.30;;;;;;;30.65;28.35;97003.31;5055753;28;20247;-68
2022/06/18 11:12:02;;;;;;;22.10;21.00;;;;;;;30.89;25.88;96989.56;5073975;28;20173;-68
2022/06/18 11:14:33;;;;;;;24.10;22.85;;;;;;;31.01;25.36;96986.72;5072725;28;20276;-69
2022/06/18 11:16:58;;;;;;;30.88;29.23;;;;;;;30.92;25.19;96991.56;5072498;28;20189;-68
2022/06/18 11:19:29;;;;;;;20.80;19.70;;;;;;;31.25;25.71;96980.31;5069743;28;20737;-68
2022/06/18 11:21:55;;;;;;;21.98;20.83;;;;;;;31.29;26.44;96986.56;5064388;28;20194;-68
2022/06/18 11:24:33;;;;;;;29.42;27.75;;;;;;;31.51;27.66;96975.03;5068630;28;20190;-68
2022/06/18 11:27:04;;;;;;;27.33;25.88;;;;;;;31.56;27.38;96980.16;5073848;28;20189;-68
2022/06/18 11:29:49;;;;;;;29.83;28.33;;;;;;;31.61;27.72;96979.09;5072855;28;20185;-69
2022/06/18 11:32:22;;;;;;;19.70;18.58;;;;;;;31.72;26.21;96971.97;5073167;28;20247;-68
2022/06/18 11:35:00;;;;;;;19.70;18.38;;;;;;;31.62;27.12;96983.38;5087187;28;20189;-70
2022/06/18 11:37:29;;;;;;;18.83;17.77;;;;;;;31.69;27.04;96973.47;5072424;28;20216;-70